AirNav   Everest Fuels
 
 1108 users online  

7PA9 Caterpillar PBP Heliport
York, Pennsylvania, USA

GOING TO YORK?


FAA INFORMATION EFFECTIVE 07 NOVEMBER 2019

Location

FAA Identifier: 7PA9
Lat/Long: 39-58-57.3530N 076-40-23.8780W
39-58.955883N 076-40.397967W
39.9825981,-76.6732994
(estimated)
Elevation: 420 ft. / 128 m (estimated)
Variation: 11W (1995)
From city: 1 mile NE of YORK, PA
Time zone: UTC -5 (UTC -4 during Daylight Saving Time)
Zip code: 17402

Heliport Operations

Heliport use: Private use. Permission required prior to landing
Activation date: 10/1974
Control tower: no
ARTCC: NEW YORK CENTER
FSS: WILLIAMSPORT FLIGHT SERVICE STATION
Attendance: CONTINUOUS
Wind indicator: yes
Segmented circle: no

Heliport Communications

WX ASOS at THV (10 nm SW): 119.275 (717-792-5529)
WX ASOS at MDT (13 nm N): PHONE 717-944-1372
WX ASOS at CXY (16 nm NW): PHONE 717-770-0880
WX ASOS at LNS (19 nm NE): 125.675 (717-569-8860)

Nearby radio navigation aids

VOR radial/distance  VOR name  Freq  Var
LRPr254/19.4LANCASTER VOR/DME117.3009W
HARr147/26.4HARRISBURG VORTAC112.5010W
EMIr034/32.5WESTMINSTER VORTAC117.9008W
RAVr197/34.4RAVINE VORTAC114.6011W

 
NDB name  Hdg/Dist  Freq  Var  ID
BELLGROVE201/27.832810WBZJ -... --.. .---

Heliport Services

Runway Information

Helipad H1

Dimensions: 65 x 65 ft. / 20 x 20 m
Surface: asphalt
Traffic pattern: leftleft

Heliport Ownership and Management from official FAA records

Ownership: Privately-owned
Owner: CATERPILLAR, INC.
P.O. BOX 787
YORK, PA 17405
Phone 717-751-5123
Manager: JON E. PETERSON
P.O. BOX 787
YORK, PA 17405
Phone 717-751-5123

Additional Remarks

A52-H1 +8 FT FENCE 140 FT N 70 FT E & 120 FT S; +25 FT PLINES 150 FT N & 130 FT S.
FOR CD CTC HARRISBURG APCH AT 800-932-0712.

Instrument Procedures

There are no published instrument procedures at 7PA9.

Some nearby airports with instrument procedures:

N71 - Donegal Springs Airpark (8 nm NE)
KTHV - York Airport (10 nm SW)
KMDT - Harrisburg International Airport (13 nm N)
KCXY - Capital City Airport (16 nm NW)
58N - Reigle Field Airport (19 nm N)
KLNS - Lancaster Airport (19 nm NE)
 
Loc | Ops | Rwys | IFR | FBO | Links
Com | Nav | Svcs | Stats | Notes
Area around 7PA9 (Caterpillar PBP Heliport)
 
Road maps at: MapQuest Bing Google
 
Aerial photo
No photo
 
Sectional chart

 
Airport distance calculator
Flying to Caterpillar PBP Heliport? Find the distance to fly.

From to 7PA9

Sunrise and sunset
Times for 15-Nov-2019
 Local
(UTC-5)
 Zulu
(UTC)
Morning civil twilight06:2411:24
Sunrise06:5311:53
Sunset16:5021:50
Evening civil twilight17:1922:19

Current date and time
Zulu (UTC)  15-Nov-2019 22:08:45
Local (UTC-5)  15-Nov-2019 17:08:45
 
METAR
KTHV 
10nm W 
152153Z AUTO 00000KT 10SM CLR 05/M04 A3016 RMK AO2 SLP221 T00501039
KMDT 
14nm N 
152156Z 00000KT 10SM SCT100 BKN250 07/M03 A3016 RMK AO2 SLP217 T00671033
KCXY 
16nm NW 
152156Z 25004KT 10SM CLR 10/M04 A3017 RMK AO2 SLP221 T01001039
KLNS 
19nm NE 
152153Z 00000KT 10SM CLR 08/M04 A3017 RMK AO2 SLP218 T00781044
TAF
KMDT 
14nm N 
151726Z 1518/1618 31006KT P6SM SCT250 FM160000 32005KT P6SM SKC FM161500 02010G15KT P6SM SKC
KLNS 
19nm NE 
151726Z 1518/1618 26007KT P6SM SCT250 FM160000 32005KT P6SM SKC FM161500 04010G15KT P6SM SKC
NOTAMs
Click for the latest NOTAMs
NOTAMs are issued by the DoD/FAA and will open in a separate window not controlled by AirNav.

 

 
 

Would you like to see your business listed on this page?

 If your business provides an interesting product or service to pilots, flight crews, aircraft, or users of the Caterpillar PBP Heliport, you should consider listing it here.  To start the listing process, click on the button below
 
Add a business
 

Other Pages about Caterpillar PBP Heliport

Update a link
 
Copyright © AirNav, LLC. All rights reserved. Privacy Policy  Contact